sensor_id;sensor_type;location;lat;lon;timestamp;P1;durP1;ratioP1;P2;durP2;ratioP2
54502;SDS011;40411;50.090;21.954;2023-07-16T00:01:52;11.82;;;8.75;;
54502;SDS011;40411;50.090;21.954;2023-07-16T00:04:17;12.32;;;7.15;;
54502;SDS011;40411;50.090;21.954;2023-07-16T00:06:43;14.07;;;6.78;;
54502;SDS011;40411;50.090;21.954;2023-07-16T00:09:09;10.07;;;7.07;;
54502;SDS011;40411;50.090;21.954;2023-07-16T00:11:35;9.57;;;7.30;;
54502;SDS011;40411;50.090;21.954;2023-07-16T00:14:01;11.13;;;7.35;;
54502;SDS011;40411;50.090;21.954;2023-07-16T00:16:27;10.88;;;7.20;;
54502;SDS011;40411;50.090;21.954;2023-07-16T00:18:53;10.35;;;7.45;;
54502;SDS011;40411;50.090;21.954;2023-07-16T00:21:19;11.30;;;7.07;;
54502;SDS011;40411;50.090;21.954;2023-07-16T00:23:45;11.85;;;6.65;;
54502;SDS011;40411;50.090;21.954;2023-07-16T00:26:12;12.05;;;7.30;;
54502;SDS011;40411;50.090;21.954;2023-07-16T00:28:38;10.35;;;7.20;;
54502;SDS011;40411;50.090;21.954;2023-07-16T00:31:04;10.43;;;6.40;;
54502;SDS011;40411;50.090;21.954;2023-07-16T00:33:30;11.30;;;7.32;;
54502;SDS011;40411;50.090;21.954;2023-07-16T00:35:56;12.73;;;6.95;;
54502;SDS011;40411;50.090;21.954;2023-07-16T00:38:22;10.35;;;7.22;;
54502;SDS011;40411;50.090;21.954;2023-07-16T00:40:49;10.50;;;7.75;;
54502;SDS011;40411;50.090;21.954;2023-07-16T00:43:15;9.18;;;7.05;;
54502;SDS011;40411;50.090;21.954;2023-07-16T00:45:41;13.48;;;6.88;;
54502;SDS011;40411;50.090;21.954;2023-07-16T00:48:10;11.50;;;7.28;;
54502;SDS011;40411;50.090;21.954;2023-07-16T00:50:37;9.27;;;6.43;;
54502;SDS011;40411;50.090;21.954;2023-07-16T00:53:05;10.45;;;6.88;;
54502;SDS011;40411;50.090;21.954;2023-07-16T00:55:33;11.85;;;7.22;;
54502;SDS011;40411;50.090;21.954;2023-07-16T00:58:01;9.38;;;6.88;;
54502;SDS011;40411;50.090;21.954;2023-07-16T01:00:31;12.82;;;7.25;;
54502;SDS011;40411;50.090;21.954;2023-07-16T01:02:57;11.88;;;7.60;;
54502;SDS011;40411;50.090;21.954;2023-07-16T01:05:24;11.23;;;7.28;;
54502;SDS011;40411;50.090;21.954;2023-07-16T01:07:57;12.30;;;8.25;;
54502;SDS011;40411;50.090;21.954;2023-07-16T01:10:29;13.75;;;8.75;;
54502;SDS011;40411;50.090;21.954;2023-07-16T01:12:56;11.45;;;7.63;;
54502;SDS011;40411;50.090;21.954;2023-07-16T01:15:23;11.73;;;7.07;;
54502;SDS011;40411;50.090;21.954;2023-07-16T01:17:49;12.18;;;6.80;;
54502;SDS011;40411;50.090;21.954;2023-07-16T01:20:15;11.52;;;6.80;;
54502;SDS011;40411;50.090;21.954;2023-07-16T01:22:47;11.52;;;6.97;;
54502;SDS011;40411;50.090;21.954;2023-07-16T01:25:36;9.85;;;7.25;;
54502;SDS011;40411;50.090;21.954;2023-07-16T01:31:15;12.02;;;6.75;;
54502;SDS011;40411;50.090;21.954;2023-07-16T01:33:42;11.27;;;7.18;;
54502;SDS011;40411;50.090;21.954;2023-07-16T01:36:12;12.48;;;6.68;;
54502;SDS011;40411;50.090;21.954;2023-07-16T01:38:39;10.13;;;6.78;;
54502;SDS011;40411;50.090;21.954;2023-07-16T01:41:05;11.70;;;7.30;;
54502;SDS011;40411;50.090;21.954;2023-07-16T01:43:31;11.13;;;7.07;;
54502;SDS011;40411;50.090;21.954;2023-07-16T01:45:57;11.65;;;6.75;;
54502;SDS011;40411;50.090;21.954;2023-07-16T01:50:48;9.00;;;6.35;;
54502;SDS011;40411;50.090;21.954;2023-07-16T01:53:14;9.63;;;6.32;;
54502;SDS011;40411;50.090;21.954;2023-07-16T01:55:40;9.07;;;5.88;;
54502;SDS011;40411;50.090;21.954;2023-07-16T01:58:05;8.40;;;5.70;;
54502;SDS011;40411;50.090;21.954;2023-07-16T02:00:32;11.38;;;6.53;;
54502;SDS011;40411;50.090;21.954;2023-07-16T02:02:57;7.95;;;5.70;;
54502;SDS011;40411;50.090;21.954;2023-07-16T02:05:23;9.10;;;6.07;;
54502;SDS011;40411;50.090;21.954;2023-07-16T02:07:49;8.35;;;5.18;;
54502;SDS011;40411;50.090;21.954;2023-07-16T02:10:15;8.38;;;4.80;;
54502;SDS011;40411;50.090;21.954;2023-07-16T02:12:41;9.07;;;5.55;;
54502;SDS011;40411;50.090;21.954;2023-07-16T02:15:07;10.90;;;5.20;;
54502;SDS011;40411;50.090;21.954;2023-07-16T02:17:36;11.70;;;4.63;;
54502;SDS011;40411;50.090;21.954;2023-07-16T02:20:02;8.48;;;5.07;;
54502;SDS011;40411;50.090;21.954;2023-07-16T02:22:30;9.00;;;5.00;;
54502;SDS011;40411;50.090;21.954;2023-07-16T02:24:56;9.93;;;5.18;;
54502;SDS011;40411;50.090;21.954;2023-07-16T02:27:22;10.93;;;4.95;;
54502;SDS011;40411;50.090;21.954;2023-07-16T02:29:48;8.73;;;5.05;;
54502;SDS011;40411;50.090;21.954;2023-07-16T02:32:15;7.70;;;4.93;;
54502;SDS011;40411;50.090;21.954;2023-07-16T02:34:41;9.60;;;5.60;;
54502;SDS011;40411;50.090;21.954;2023-07-16T02:37:07;9.60;;;5.57;;
54502;SDS011;40411;50.090;21.954;2023-07-16T02:39:32;8.10;;;5.25;;
54502;SDS011;40411;50.090;21.954;2023-07-16T02:41:58;13.93;;;5.43;;
54502;SDS011;40411;50.090;21.954;2023-07-16T02:44:24;12.20;;;5.30;;
54502;SDS011;40411;50.090;21.954;2023-07-16T02:46:50;7.47;;;5.30;;
54502;SDS011;40411;50.090;21.954;2023-07-16T02:49:16;7.75;;;5.40;;
54502;SDS011;40411;50.090;21.954;2023-07-16T02:51:42;10.48;;;5.97;;
54502;SDS011;40411;50.090;21.954;2023-07-16T02:54:08;12.13;;;5.47;;
54502;SDS011;40411;50.090;21.954;2023-07-16T02:56:34;9.85;;;5.35;;
54502;SDS011;40411;50.090;21.954;2023-07-16T02:59:00;9.35;;;5.05;;
54502;SDS011;40411;50.090;21.954;2023-07-16T03:01:26;9.38;;;5.20;;
54502;SDS011;40411;50.090;21.954;2023-07-16T03:03:52;9.68;;;5.57;;
54502;SDS011;40411;50.090;21.954;2023-07-16T03:06:17;9.48;;;5.25;;
54502;SDS011;40411;50.090;21.954;2023-07-16T03:08:43;8.57;;;5.32;;
54502;SDS011;40411;50.090;21.954;2023-07-16T03:11:11;8.88;;;5.35;;
54502;SDS011;40411;50.090;21.954;2023-07-16T03:13:38;9.35;;;5.20;;
54502;SDS011;40411;50.090;21.954;2023-07-16T03:16:03;8.27;;;5.00;;
54502;SDS011;40411;50.090;21.954;2023-07-16T03:18:30;11.88;;;5.68;;
54502;SDS011;40411;50.090;21.954;2023-07-16T03:20:56;8.50;;;5.28;;
54502;SDS011;40411;50.090;21.954;2023-07-16T03:23:23;7.63;;;5.32;;
54502;SDS011;40411;50.090;21.954;2023-07-16T03:25:49;8.07;;;5.47;;
54502;SDS011;40411;50.090;21.954;2023-07-16T03:28:15;8.50;;;5.13;;
54502;SDS011;40411;50.090;21.954;2023-07-16T03:30:45;9.77;;;5.53;;
54502;SDS011;40411;50.090;21.954;2023-07-16T03:35:42;7.57;;;5.03;;
54502;SDS011;40411;50.090;21.954;2023-07-16T03:38:10;9.18;;;5.00;;
54502;SDS011;40411;50.090;21.954;2023-07-16T03:40:38;8.60;;;5.28;;
54502;SDS011;40411;50.090;21.954;2023-07-16T03:43:06;8.25;;;5.15;;
54502;SDS011;40411;50.090;21.954;2023-07-16T03:45:33;8.23;;;5.65;;
54502;SDS011;40411;50.090;21.954;2023-07-16T03:47:59;9.73;;;5.53;;
54502;SDS011;40411;50.090;21.954;2023-07-16T03:50:25;8.65;;;5.78;;
54502;SDS011;40411;50.090;21.954;2023-07-16T03:52:51;10.07;;;5.55;;
54502;SDS011;40411;50.090;21.954;2023-07-16T03:55:17;8.75;;;5.65;;
54502;SDS011;40411;50.090;21.954;2023-07-16T03:57:43;10.50;;;5.50;;
54502;SDS011;40411;50.090;21.954;2023-07-16T04:00:08;11.85;;;6.18;;
54502;SDS011;40411;50.090;21.954;2023-07-16T04:02:42;11.00;;;5.47;;
54502;SDS011;40411;50.090;21.954;2023-07-16T04:05:14;7.93;;;4.90;;
54502;SDS011;40411;50.090;21.954;2023-07-16T04:07:40;11.05;;;5.35;;
54502;SDS011;40411;50.090;21.954;2023-07-16T04:10:06;9.27;;;5.53;;
54502;SDS011;40411;50.090;21.954;2023-07-16T04:12:32;9.65;;;5.47;;
54502;SDS011;40411;50.090;21.954;2023-07-16T04:14:58;13.02;;;4.72;;
54502;SDS011;40411;50.090;21.954;2023-07-16T04:17:25;8.65;;;4.95;;
54502;SDS011;40411;50.090;21.954;2023-07-16T04:19:50;8.20;;;4.75;;
54502;SDS011;40411;50.090;21.954;2023-07-16T04:22:17;10.02;;;5.10;;
54502;SDS011;40411;50.090;21.954;2023-07-16T04:24:42;7.80;;;4.68;;
54502;SDS011;40411;50.090;21.954;2023-07-16T04:27:09;12.48;;;4.47;;
54502;SDS011;40411;50.090;21.954;2023-07-16T04:29:34;7.15;;;4.20;;
54502;SDS011;40411;50.090;21.954;2023-07-16T04:32:01;12.02;;;5.13;;
54502;SDS011;40411;50.090;21.954;2023-07-16T04:34:28;7.30;;;4.60;;
54502;SDS011;40411;50.090;21.954;2023-07-16T04:36:54;7.00;;;4.63;;
54502;SDS011;40411;50.090;21.954;2023-07-16T04:39:20;6.80;;;3.88;;
54502;SDS011;40411;50.090;21.954;2023-07-16T04:41:46;6.82;;;3.90;;
54502;SDS011;40411;50.090;21.954;2023-07-16T04:44:11;6.13;;;3.90;;
54502;SDS011;40411;50.090;21.954;2023-07-16T04:46:37;6.40;;;3.78;;
54502;SDS011;40411;50.090;21.954;2023-07-16T04:49:04;7.93;;;3.97;;
54502;SDS011;40411;50.090;21.954;2023-07-16T04:51:30;9.40;;;4.07;;
54502;SDS011;40411;50.090;21.954;2023-07-16T04:53:56;7.00;;;3.80;;
54502;SDS011;40411;50.090;21.954;2023-07-16T04:56:22;7.90;;;3.88;;
54502;SDS011;40411;50.090;21.954;2023-07-16T04:58:47;6.93;;;3.33;;
54502;SDS011;40411;50.090;21.954;2023-07-16T05:01:13;7.25;;;3.63;;
54502;SDS011;40411;50.090;21.954;2023-07-16T05:03:39;10.43;;;2.95;;
54502;SDS011;40411;50.090;21.954;2023-07-16T05:06:05;8.23;;;3.75;;
54502;SDS011;40411;50.090;21.954;2023-07-16T05:08:31;7.03;;;3.53;;
54502;SDS011;40411;50.090;21.954;2023-07-16T05:10:57;6.63;;;3.38;;
54502;SDS011;40411;50.090;21.954;2023-07-16T05:13:24;7.50;;;3.60;;
54502;SDS011;40411;50.090;21.954;2023-07-16T05:15:50;6.55;;;3.58;;
54502;SDS011;40411;50.090;21.954;2023-07-16T05:18:16;8.02;;;3.47;;
54502;SDS011;40411;50.090;21.954;2023-07-16T05:20:42;8.82;;;3.65;;
54502;SDS011;40411;50.090;21.954;2023-07-16T05:23:09;6.32;;;3.40;;
54502;SDS011;40411;50.090;21.954;2023-07-16T05:25:35;6.53;;;3.53;;
54502;SDS011;40411;50.090;21.954;2023-07-16T05:28:01;11.07;;;3.67;;
54502;SDS011;40411;50.090;21.954;2023-07-16T05:30:27;6.85;;;3.40;;
54502;SDS011;40411;50.090;21.954;2023-07-16T05:32:53;6.28;;;3.15;;
54502;SDS011;40411;50.090;21.954;2023-07-16T05:35:19;8.77;;;3.85;;
54502;SDS011;40411;50.090;21.954;2023-07-16T05:37:44;8.15;;;3.70;;
54502;SDS011;40411;50.090;21.954;2023-07-16T05:40:10;9.75;;;3.28;;
54502;SDS011;40411;50.090;21.954;2023-07-16T05:42:36;7.22;;;3.17;;
54502;SDS011;40411;50.090;21.954;2023-07-16T05:45:02;6.57;;;3.17;;
54502;SDS011;40411;50.090;21.954;2023-07-16T05:47:28;8.50;;;3.47;;
54502;SDS011;40411;50.090;21.954;2023-07-16T05:49:55;7.88;;;3.53;;
54502;SDS011;40411;50.090;21.954;2023-07-16T05:52:20;6.28;;;3.60;;
54502;SDS011;40411;50.090;21.954;2023-07-16T05:54:46;5.43;;;2.92;;
54502;SDS011;40411;50.090;21.954;2023-07-16T05:57:12;6.68;;;3.22;;
54502;SDS011;40411;50.090;21.954;2023-07-16T05:59:38;5.95;;;3.17;;
54502;SDS011;40411;50.090;21.954;2023-07-16T06:02:04;6.57;;;3.13;;
54502;SDS011;40411;50.090;21.954;2023-07-16T06:04:31;4.90;;;2.63;;
54502;SDS011;40411;50.090;21.954;2023-07-16T06:06:57;8.30;;;2.90;;
54502;SDS011;40411;50.090;21.954;2023-07-16T06:09:23;5.93;;;3.15;;
54502;SDS011;40411;50.090;21.954;2023-07-16T06:11:49;4.75;;;2.63;;
54502;SDS011;40411;50.090;21.954;2023-07-16T06:14:15;6.68;;;2.88;;
54502;SDS011;40411;50.090;21.954;2023-07-16T06:16:42;5.22;;;2.40;;
54502;SDS011;40411;50.090;21.954;2023-07-16T06:19:08;6.88;;;3.10;;
54502;SDS011;40411;50.090;21.954;2023-07-16T06:21:33;5.25;;;2.72;;
54502;SDS011;40411;50.090;21.954;2023-07-16T06:24:00;7.22;;;3.05;;
54502;SDS011;40411;50.090;21.954;2023-07-16T06:26:26;5.20;;;2.78;;
54502;SDS011;40411;50.090;21.954;2023-07-16T06:28:52;5.32;;;2.80;;
54502;SDS011;40411;50.090;21.954;2023-07-16T06:31:17;10.18;;;3.15;;
54502;SDS011;40411;50.090;21.954;2023-07-16T06:33:44;4.82;;;2.65;;
54502;SDS011;40411;50.090;21.954;2023-07-16T06:36:12;6.72;;;2.60;;
54502;SDS011;40411;50.090;21.954;2023-07-16T06:38:38;5.95;;;2.35;;
54502;SDS011;40411;50.090;21.954;2023-07-16T06:41:04;5.38;;;2.47;;
54502;SDS011;40411;50.090;21.954;2023-07-16T06:43:30;6.80;;;2.50;;
54502;SDS011;40411;50.090;21.954;2023-07-16T06:45:56;5.50;;;2.35;;
54502;SDS011;40411;50.090;21.954;2023-07-16T06:48:22;6.25;;;2.60;;
54502;SDS011;40411;50.090;21.954;2023-07-16T06:50:51;5.30;;;2.40;;
54502;SDS011;40411;50.090;21.954;2023-07-16T06:53:17;9.85;;;2.63;;
54502;SDS011;40411;50.090;21.954;2023-07-16T06:55:43;5.18;;;2.67;;
54502;SDS011;40411;50.090;21.954;2023-07-16T06:58:13;7.22;;;2.72;;
54502;SDS011;40411;50.090;21.954;2023-07-16T07:00:39;6.88;;;2.40;;
54502;SDS011;40411;50.090;21.954;2023-07-16T07:03:05;5.22;;;2.35;;
54502;SDS011;40411;50.090;21.954;2023-07-16T07:05:32;7.20;;;2.40;;
54502;SDS011;40411;50.090;21.954;2023-07-16T07:07:58;4.70;;;2.60;;
54502;SDS011;40411;50.090;21.954;2023-07-16T07:10:23;5.47;;;2.47;;
54502;SDS011;40411;50.090;21.954;2023-07-16T07:12:49;6.25;;;2.72;;
54502;SDS011;40411;50.090;21.954;2023-07-16T07:15:15;5.22;;;2.85;;
54502;SDS011;40411;50.090;21.954;2023-07-16T07:17:41;4.32;;;2.38;;
54502;SDS011;40411;50.090;21.954;2023-07-16T07:20:08;5.35;;;2.38;;
54502;SDS011;40411;50.090;21.954;2023-07-16T07:22:34;4.55;;;2.55;;
54502;SDS011;40411;50.090;21.954;2023-07-16T07:25:00;5.60;;;2.30;;
54502;SDS011;40411;50.090;21.954;2023-07-16T07:27:26;4.78;;;2.70;;
54502;SDS011;40411;50.090;21.954;2023-07-16T07:29:52;6.65;;;3.00;;
54502;SDS011;40411;50.090;21.954;2023-07-16T07:32:21;5.22;;;2.38;;
54502;SDS011;40411;50.090;21.954;2023-07-16T07:34:47;5.40;;;2.22;;
54502;SDS011;40411;50.090;21.954;2023-07-16T07:37:13;6.85;;;2.80;;
54502;SDS011;40411;50.090;21.954;2023-07-16T07:39:39;4.03;;;2.20;;
54502;SDS011;40411;50.090;21.954;2023-07-16T07:42:05;5.25;;;2.30;;
54502;SDS011;40411;50.090;21.954;2023-07-16T07:44:32;5.85;;;2.58;;
54502;SDS011;40411;50.090;21.954;2023-07-16T07:46:58;4.93;;;2.42;;
54502;SDS011;40411;50.090;21.954;2023-07-16T07:49:24;8.18;;;2.40;;
54502;SDS011;40411;50.090;21.954;2023-07-16T07:51:49;6.88;;;2.40;;
54502;SDS011;40411;50.090;21.954;2023-07-16T07:54:17;5.60;;;2.40;;
54502;SDS011;40411;50.090;21.954;2023-07-16T07:56:45;6.60;;;2.90;;
54502;SDS011;40411;50.090;21.954;2023-07-16T07:59:11;9.73;;;2.42;;
54502;SDS011;40411;50.090;21.954;2023-07-16T08:01:37;4.55;;;2.28;;
54502;SDS011;40411;50.090;21.954;2023-07-16T08:04:03;5.95;;;2.30;;
54502;SDS011;40411;50.090;21.954;2023-07-16T08:06:29;5.25;;;2.15;;
54502;SDS011;40411;50.090;21.954;2023-07-16T08:08:55;6.78;;;2.42;;
54502;SDS011;40411;50.090;21.954;2023-07-16T08:11:20;11.15;;;2.53;;
54502;SDS011;40411;50.090;21.954;2023-07-16T08:13:46;8.10;;;2.20;;
54502;SDS011;40411;50.090;21.954;2023-07-16T08:16:12;8.48;;;2.38;;
54502;SDS011;40411;50.090;21.954;2023-07-16T08:18:38;8.82;;;2.45;;
54502;SDS011;40411;50.090;21.954;2023-07-16T08:21:04;6.10;;;2.22;;
54502;SDS011;40411;50.090;21.954;2023-07-16T08:23:30;4.57;;;2.33;;
54502;SDS011;40411;50.090;21.954;2023-07-16T08:25:56;4.85;;;2.35;;
54502;SDS011;40411;50.090;21.954;2023-07-16T08:28:22;5.22;;;2.25;;
54502;SDS011;40411;50.090;21.954;2023-07-16T08:30:47;4.28;;;2.20;;
54502;SDS011;40411;50.090;21.954;2023-07-16T08:33:14;4.78;;;2.10;;
54502;SDS011;40411;50.090;21.954;2023-07-16T08:35:40;5.88;;;2.50;;
54502;SDS011;40411;50.090;21.954;2023-07-16T08:38:07;9.45;;;2.42;;
54502;SDS011;40411;50.090;21.954;2023-07-16T08:40:36;11.65;;;2.65;;
54502;SDS011;40411;50.090;21.954;2023-07-16T08:43:03;7.88;;;2.40;;
54502;SDS011;40411;50.090;21.954;2023-07-16T08:45:34;5.85;;;2.30;;
54502;SDS011;40411;50.090;21.954;2023-07-16T08:48:10;5.05;;;2.28;;
54502;SDS011;40411;50.090;21.954;2023-07-16T08:50:36;5.57;;;2.33;;
54502;SDS011;40411;50.090;21.954;2023-07-16T08:53:06;6.88;;;2.10;;
54502;SDS011;40411;50.090;21.954;2023-07-16T08:55:33;5.57;;;2.58;;
54502;SDS011;40411;50.090;21.954;2023-07-16T08:58:00;7.38;;;2.45;;
54502;SDS011;40411;50.090;21.954;2023-07-16T09:00:26;7.72;;;2.50;;
54502;SDS011;40411;50.090;21.954;2023-07-16T09:02:52;5.53;;;2.42;;
54502;SDS011;40411;50.090;21.954;2023-07-16T09:05:19;5.00;;;2.30;;
54502;SDS011;40411;50.090;21.954;2023-07-16T09:07:46;5.10;;;2.50;;
54502;SDS011;40411;50.090;21.954;2023-07-16T09:10:12;6.93;;;2.45;;
54502;SDS011;40411;50.090;21.954;2023-07-16T09:12:42;5.13;;;2.50;;
54502;SDS011;40411;50.090;21.954;2023-07-16T09:15:17;6.25;;;2.72;;
54502;SDS011;40411;50.090;21.954;2023-07-16T09:17:47;6.50;;;3.00;;
54502;SDS011;40411;50.090;21.954;2023-07-16T09:20:17;8.75;;;2.30;;
54502;SDS011;40411;50.090;21.954;2023-07-16T09:22:44;6.00;;;2.60;;
54502;SDS011;40411;50.090;21.954;2023-07-16T09:25:10;8.25;;;2.40;;
54502;SDS011;40411;50.090;21.954;2023-07-16T09:27:36;7.70;;;2.35;;
54502;SDS011;40411;50.090;21.954;2023-07-16T09:30:06;4.35;;;2.15;;
54502;SDS011;40411;50.090;21.954;2023-07-16T09:32:33;4.55;;;2.47;;
54502;SDS011;40411;50.090;21.954;2023-07-16T09:35:11;6.80;;;2.33;;
54502;SDS011;40411;50.090;21.954;2023-07-16T09:37:38;8.18;;;2.50;;
54502;SDS011;40411;50.090;21.954;2023-07-16T09:40:08;5.65;;;2.40;;
54502;SDS011;40411;50.090;21.954;2023-07-16T09:42:39;6.70;;;2.60;;
54502;SDS011;40411;50.090;21.954;2023-07-16T09:45:07;8.75;;;2.42;;
54502;SDS011;40411;50.090;21.954;2023-07-16T09:47:37;5.70;;;2.30;;
54502;SDS011;40411;50.090;21.954;2023-07-16T09:50:03;7.28;;;2.47;;
54502;SDS011;40411;50.090;21.954;2023-07-16T09:52:32;6.05;;;2.60;;
54502;SDS011;40411;50.090;21.954;2023-07-16T09:55:00;4.25;;;2.20;;
54502;SDS011;40411;50.090;21.954;2023-07-16T09:57:28;7.70;;;2.60;;
54502;SDS011;40411;50.090;21.954;2023-07-16T09:59:58;7.82;;;2.70;;
54502;SDS011;40411;50.090;21.954;2023-07-16T10:02:26;6.45;;;2.70;;
54502;SDS011;40411;50.090;21.954;2023-07-16T10:04:52;7.70;;;2.60;;
54502;SDS011;40411;50.090;21.954;2023-07-16T10:07:23;7.95;;;2.50;;
54502;SDS011;40411;50.090;21.954;2023-07-16T10:09:57;5.70;;;2.67;;
54502;SDS011;40411;50.090;21.954;2023-07-16T10:12:24;8.88;;;2.58;;
54502;SDS011;40411;50.090;21.954;2023-07-16T10:14:51;5.60;;;2.45;;
54502;SDS011;40411;50.090;21.954;2023-07-16T10:17:25;5.28;;;2.70;;
54502;SDS011;40411;50.090;21.954;2023-07-16T10:19:56;4.95;;;2.55;;
54502;SDS011;40411;50.090;21.954;2023-07-16T10:22:34;6.28;;;2.40;;
54502;SDS011;40411;50.090;21.954;2023-07-16T10:24:59;5.60;;;2.50;;
54502;SDS011;40411;50.090;21.954;2023-07-16T10:27:27;6.03;;;2.47;;
54502;SDS011;40411;50.090;21.954;2023-07-16T10:29:57;7.55;;;2.55;;
54502;SDS011;40411;50.090;21.954;2023-07-16T10:32:28;4.53;;;2.38;;
54502;SDS011;40411;50.090;21.954;2023-07-16T10:34:55;6.65;;;2.53;;
54502;SDS011;40411;50.090;21.954;2023-07-16T10:37:22;7.35;;;2.50;;
54502;SDS011;40411;50.090;21.954;2023-07-16T10:39:48;6.15;;;2.78;;
54502;SDS011;40411;50.090;21.954;2023-07-16T10:42:16;9.70;;;2.53;;
54502;SDS011;40411;50.090;21.954;2023-07-16T10:44:43;15.05;;;2.80;;
54502;SDS011;40411;50.090;21.954;2023-07-16T10:47:19;6.93;;;2.70;;
54502;SDS011;40411;50.090;21.954;2023-07-16T10:49:48;6.88;;;3.17;;
54502;SDS011;40411;50.090;21.954;2023-07-16T10:52:15;8.30;;;2.78;;
54502;SDS011;40411;50.090;21.954;2023-07-16T10:54:40;6.35;;;3.00;;
54502;SDS011;40411;50.090;21.954;2023-07-16T10:57:07;11.23;;;3.03;;
54502;SDS011;40411;50.090;21.954;2023-07-16T10:59:32;5.55;;;2.78;;
54502;SDS011;40411;50.090;21.954;2023-07-16T11:01:58;9.18;;;2.50;;
54502;SDS011;40411;50.090;21.954;2023-07-16T11:04:24;6.78;;;2.47;;
54502;SDS011;40411;50.090;21.954;2023-07-16T11:06:50;5.05;;;2.67;;
54502;SDS011;40411;50.090;21.954;2023-07-16T11:09:16;5.30;;;2.63;;
54502;SDS011;40411;50.090;21.954;2023-07-16T11:11:42;6.68;;;2.58;;
54502;SDS011;40411;50.090;21.954;2023-07-16T11:14:07;5.18;;;2.58;;
54502;SDS011;40411;50.090;21.954;2023-07-16T11:16:34;5.18;;;2.50;;
54502;SDS011;40411;50.090;21.954;2023-07-16T11:19:01;7.13;;;3.00;;
54502;SDS011;40411;50.090;21.954;2023-07-16T11:21:29;6.43;;;2.70;;
54502;SDS011;40411;50.090;21.954;2023-07-16T11:23:55;5.75;;;2.22;;
54502;SDS011;40411;50.090;21.954;2023-07-16T11:26:21;6.53;;;3.00;;
54502;SDS011;40411;50.090;21.954;2023-07-16T11:28:49;4.35;;;2.28;;
54502;SDS011;40411;50.090;21.954;2023-07-16T11:31:16;5.55;;;2.53;;
54502;SDS011;40411;50.090;21.954;2023-07-16T11:33:46;4.72;;;2.63;;
54502;SDS011;40411;50.090;21.954;2023-07-16T11:36:12;4.68;;;2.53;;
54502;SDS011;40411;50.090;21.954;2023-07-16T11:38:38;7.40;;;2.88;;
54502;SDS011;40411;50.090;21.954;2023-07-16T11:41:04;8.18;;;2.75;;
54502;SDS011;40411;50.090;21.954;2023-07-16T11:43:36;5.63;;;3.00;;
54502;SDS011;40411;50.090;21.954;2023-07-16T11:46:13;6.13;;;3.15;;
54502;SDS011;40411;50.090;21.954;2023-07-16T11:48:41;5.75;;;2.83;;
54502;SDS011;40411;50.090;21.954;2023-07-16T11:51:07;5.07;;;3.08;;
54502;SDS011;40411;50.090;21.954;2023-07-16T11:53:33;6.47;;;3.13;;
54502;SDS011;40411;50.090;21.954;2023-07-16T11:55:59;6.15;;;3.10;;
54502;SDS011;40411;50.090;21.954;2023-07-16T11:58:25;8.38;;;2.60;;
54502;SDS011;40411;50.090;21.954;2023-07-16T12:00:51;6.00;;;2.60;;
54502;SDS011;40411;50.090;21.954;2023-07-16T12:03:17;7.40;;;2.50;;
54502;SDS011;40411;50.090;21.954;2023-07-16T12:05:43;5.30;;;2.85;;
54502;SDS011;40411;50.090;21.954;2023-07-16T12:08:08;5.18;;;2.45;;
54502;SDS011;40411;50.090;21.954;2023-07-16T12:10:40;5.35;;;3.00;;
54502;SDS011;40411;50.090;21.954;2023-07-16T12:13:06;5.63;;;2.45;;
54502;SDS011;40411;50.090;21.954;2023-07-16T12:15:32;5.75;;;3.00;;
54502;SDS011;40411;50.090;21.954;2023-07-16T12:17:59;7.63;;;2.70;;
54502;SDS011;40411;50.090;21.954;2023-07-16T12:20:25;7.88;;;3.05;;
54502;SDS011;40411;50.090;21.954;2023-07-16T12:22:51;5.80;;;2.78;;
54502;SDS011;40411;50.090;21.954;2023-07-16T12:25:17;5.10;;;3.03;;
54502;SDS011;40411;50.090;21.954;2023-07-16T12:27:44;5.22;;;2.63;;
54502;SDS011;40411;50.090;21.954;2023-07-16T12:30:10;5.80;;;2.88;;
54502;SDS011;40411;50.090;21.954;2023-07-16T12:32:36;5.88;;;2.65;;
54502;SDS011;40411;50.090;21.954;2023-07-16T12:35:02;5.20;;;2.80;;
54502;SDS011;40411;50.090;21.954;2023-07-16T12:37:29;5.18;;;2.63;;
54502;SDS011;40411;50.090;21.954;2023-07-16T12:39:56;6.30;;;2.55;;
54502;SDS011;40411;50.090;21.954;2023-07-16T12:42:21;13.27;;;3.05;;
54502;SDS011;40411;50.090;21.954;2023-07-16T12:44:47;10.38;;;3.38;;
54502;SDS011;40411;50.090;21.954;2023-07-16T12:47:14;6.43;;;2.83;;
54502;SDS011;40411;50.090;21.954;2023-07-16T12:49:40;7.13;;;3.00;;
54502;SDS011;40411;50.090;21.954;2023-07-16T12:52:06;4.53;;;2.58;;
54502;SDS011;40411;50.090;21.954;2023-07-16T12:54:33;7.00;;;2.80;;
54502;SDS011;40411;50.090;21.954;2023-07-16T12:56:58;8.43;;;2.85;;
54502;SDS011;40411;50.090;21.954;2023-07-16T12:59:24;6.20;;;3.08;;
54502;SDS011;40411;50.090;21.954;2023-07-16T13:01:50;4.78;;;2.70;;
54502;SDS011;40411;50.090;21.954;2023-07-16T13:04:17;6.85;;;3.05;;
54502;SDS011;40411;50.090;21.954;2023-07-16T13:06:42;6.10;;;3.00;;
54502;SDS011;40411;50.090;21.954;2023-07-16T13:09:11;5.63;;;2.80;;
54502;SDS011;40411;50.090;21.954;2023-07-16T13:11:36;7.40;;;2.97;;
54502;SDS011;40411;50.090;21.954;2023-07-16T13:14:02;6.43;;;2.55;;
54502;SDS011;40411;50.090;21.954;2023-07-16T13:16:28;6.75;;;2.75;;
54502;SDS011;40411;50.090;21.954;2023-07-16T13:18:54;8.00;;;2.90;;
54502;SDS011;40411;50.090;21.954;2023-07-16T13:21:20;8.07;;;2.85;;
54502;SDS011;40411;50.090;21.954;2023-07-16T13:23:46;4.78;;;2.60;;
54502;SDS011;40411;50.090;21.954;2023-07-16T13:26:11;8.27;;;3.03;;
54502;SDS011;40411;50.090;21.954;2023-07-16T13:28:37;5.55;;;2.97;;
54502;SDS011;40411;50.090;21.954;2023-07-16T13:31:03;6.75;;;3.40;;
54502;SDS011;40411;50.090;21.954;2023-07-16T13:33:29;9.45;;;2.97;;
54502;SDS011;40411;50.090;21.954;2023-07-16T13:35:55;7.43;;;3.40;;
54502;SDS011;40411;50.090;21.954;2023-07-16T13:38:22;5.10;;;2.78;;
54502;SDS011;40411;50.090;21.954;2023-07-16T13:40:48;6.78;;;2.80;;
54502;SDS011;40411;50.090;21.954;2023-07-16T13:43:14;5.15;;;2.90;;
54502;SDS011;40411;50.090;21.954;2023-07-16T13:45:39;7.07;;;2.70;;
54502;SDS011;40411;50.090;21.954;2023-07-16T13:48:05;6.00;;;3.13;;
54502;SDS011;40411;50.090;21.954;2023-07-16T13:50:31;5.82;;;3.10;;
54502;SDS011;40411;50.090;21.954;2023-07-16T13:52:57;7.15;;;2.63;;
54502;SDS011;40411;50.090;21.954;2023-07-16T13:55:27;7.75;;;2.97;;
54502;SDS011;40411;50.090;21.954;2023-07-16T13:57:54;5.75;;;2.83;;
54502;SDS011;40411;50.090;21.954;2023-07-16T14:00:21;4.60;;;2.90;;
54502;SDS011;40411;50.090;21.954;2023-07-16T14:02:47;10.05;;;2.80;;
54502;SDS011;40411;50.090;21.954;2023-07-16T14:05:13;6.40;;;2.80;;
54502;SDS011;40411;50.090;21.954;2023-07-16T14:07:39;7.95;;;3.03;;
54502;SDS011;40411;50.090;21.954;2023-07-16T14:10:05;9.70;;;2.92;;
54502;SDS011;40411;50.090;21.954;2023-07-16T14:12:31;5.28;;;2.70;;
54502;SDS011;40411;50.090;21.954;2023-07-16T14:14:58;10.93;;;3.25;;
54502;SDS011;40411;50.090;21.954;2023-07-16T14:17:24;8.43;;;3.03;;
54502;SDS011;40411;50.090;21.954;2023-07-16T14:19:51;6.80;;;2.80;;
54502;SDS011;40411;50.090;21.954;2023-07-16T14:22:17;6.72;;;3.08;;
54502;SDS011;40411;50.090;21.954;2023-07-16T14:24:42;7.85;;;3.13;;
54502;SDS011;40411;50.090;21.954;2023-07-16T14:27:08;4.65;;;2.95;;
54502;SDS011;40411;50.090;21.954;2023-07-16T14:29:35;4.65;;;2.65;;
54502;SDS011;40411;50.090;21.954;2023-07-16T14:32:01;7.90;;;2.58;;
54502;SDS011;40411;50.090;21.954;2023-07-16T14:34:27;4.32;;;2.70;;
54502;SDS011;40411;50.090;21.954;2023-07-16T14:36:53;5.05;;;3.00;;